sensor_id;sensor_type;location;lat;lon;timestamp;P1;durP1;ratioP1;P2;durP2;ratioP2
12814;SDS011;6472;52.328;13.070;2023-08-30T00:02:12;4.43;;;2.80;;
12814;SDS011;6472;52.328;13.070;2023-08-30T00:04:41;2.30;;;2.10;;
12814;SDS011;6472;52.328;13.070;2023-08-30T00:07:09;2.40;;;2.30;;
12814;SDS011;6472;52.328;13.070;2023-08-30T00:09:38;2.43;;;2.23;;
12814;SDS011;6472;52.328;13.070;2023-08-30T00:12:06;2.33;;;2.13;;
12814;SDS011;6472;52.328;13.070;2023-08-30T00:14:35;2.20;;;2.10;;
12814;SDS011;6472;52.328;13.070;2023-08-30T00:17:03;1.97;;;1.87;;
12814;SDS011;6472;52.328;13.070;2023-08-30T00:19:31;2.90;;;2.70;;
12814;SDS011;6472;52.328;13.070;2023-08-30T00:21:59;2.43;;;2.23;;
12814;SDS011;6472;52.328;13.070;2023-08-30T00:24:27;3.70;;;2.30;;
12814;SDS011;6472;52.328;13.070;2023-08-30T00:26:56;3.33;;;2.17;;
12814;SDS011;6472;52.328;13.070;2023-08-30T00:29:24;2.20;;;2.10;;
12814;SDS011;6472;52.328;13.070;2023-08-30T00:31:54;2.07;;;1.97;;
12814;SDS011;6472;52.328;13.070;2023-08-30T00:34:22;4.00;;;2.20;;
12814;SDS011;6472;52.328;13.070;2023-08-30T00:36:50;2.50;;;2.30;;
12814;SDS011;6472;52.328;13.070;2023-08-30T00:39:18;2.83;;;2.20;;
12814;SDS011;6472;52.328;13.070;2023-08-30T00:41:46;2.67;;;2.47;;
12814;SDS011;6472;52.328;13.070;2023-08-30T00:44:14;3.47;;;2.33;;
12814;SDS011;6472;52.328;13.070;2023-08-30T00:46:42;2.30;;;2.10;;
12814;SDS011;6472;52.328;13.070;2023-08-30T00:49:13;2.73;;;2.53;;
12814;SDS011;6472;52.328;13.070;2023-08-30T00:51:41;2.00;;;1.80;;
12814;SDS011;6472;52.328;13.070;2023-08-30T00:54:10;4.67;;;2.50;;
12814;SDS011;6472;52.328;13.070;2023-08-30T00:56:38;2.40;;;2.20;;
12814;SDS011;6472;52.328;13.070;2023-08-30T00:59:06;2.33;;;2.10;;
12814;SDS011;6472;52.328;13.070;2023-08-30T01:01:34;2.57;;;2.20;;
12814;SDS011;6472;52.328;13.070;2023-08-30T01:04:02;2.40;;;2.13;;
12814;SDS011;6472;52.328;13.070;2023-08-30T01:06:32;2.60;;;2.40;;
12814;SDS011;6472;52.328;13.070;2023-08-30T01:09:01;2.73;;;2.53;;
12814;SDS011;6472;52.328;13.070;2023-08-30T01:11:32;2.40;;;2.10;;
12814;SDS011;6472;52.328;13.070;2023-08-30T01:14:04;2.40;;;2.20;;
12814;SDS011;6472;52.328;13.070;2023-08-30T01:16:35;2.17;;;2.00;;
12814;SDS011;6472;52.328;13.070;2023-08-30T01:19:05;2.80;;;2.60;;
12814;SDS011;6472;52.328;13.070;2023-08-30T01:21:48;2.80;;;2.60;;
12814;SDS011;6472;52.328;13.070;2023-08-30T01:24:23;2.33;;;2.13;;
12814;SDS011;6472;52.328;13.070;2023-08-30T01:27:05;2.20;;;2.10;;
12814;SDS011;6472;52.328;13.070;2023-08-30T01:29:36;4.10;;;2.50;;
12814;SDS011;6472;52.328;13.070;2023-08-30T01:32:05;3.50;;;2.47;;
12814;SDS011;6472;52.328;13.070;2023-08-30T01:34:36;2.70;;;2.50;;
12814;SDS011;6472;52.328;13.070;2023-08-30T01:37:06;2.80;;;2.43;;
12814;SDS011;6472;52.328;13.070;2023-08-30T01:39:36;2.83;;;1.80;;
12814;SDS011;6472;52.328;13.070;2023-08-30T01:42:08;2.60;;;2.40;;
12814;SDS011;6472;52.328;13.070;2023-08-30T01:44:37;2.30;;;2.20;;
12814;SDS011;6472;52.328;13.070;2023-08-30T01:47:07;4.93;;;3.00;;
12814;SDS011;6472;52.328;13.070;2023-08-30T01:49:35;2.90;;;2.60;;
12814;SDS011;6472;52.328;13.070;2023-08-30T01:52:06;3.97;;;2.73;;
12814;SDS011;6472;52.328;13.070;2023-08-30T01:54:34;3.10;;;2.90;;
12814;SDS011;6472;52.328;13.070;2023-08-30T01:57:03;4.00;;;2.90;;
12814;SDS011;6472;52.328;13.070;2023-08-30T01:59:33;3.30;;;3.00;;
12814;SDS011;6472;52.328;13.070;2023-08-30T02:02:01;3.70;;;2.60;;
12814;SDS011;6472;52.328;13.070;2023-08-30T02:04:30;2.90;;;2.70;;
12814;SDS011;6472;52.328;13.070;2023-08-30T02:07:00;3.07;;;2.87;;
12814;SDS011;6472;52.328;13.070;2023-08-30T02:09:33;3.50;;;3.20;;
12814;SDS011;6472;52.328;13.070;2023-08-30T02:12:07;4.03;;;3.47;;
12814;SDS011;6472;52.328;13.070;2023-08-30T02:14:42;4.10;;;3.70;;
12814;SDS011;6472;52.328;13.070;2023-08-30T02:17:13;4.90;;;4.40;;
12814;SDS011;6472;52.328;13.070;2023-08-30T02:19:42;4.07;;;3.70;;
12814;SDS011;6472;52.328;13.070;2023-08-30T02:22:11;4.90;;;4.17;;
12814;SDS011;6472;52.328;13.070;2023-08-30T02:24:39;4.33;;;3.93;;
12814;SDS011;6472;52.328;13.070;2023-08-30T02:27:07;4.17;;;3.77;;
12814;SDS011;6472;52.328;13.070;2023-08-30T02:29:35;4.67;;;4.27;;
12814;SDS011;6472;52.328;13.070;2023-08-30T02:32:04;4.50;;;4.10;;
12814;SDS011;6472;52.328;13.070;2023-08-30T02:34:33;4.83;;;4.43;;
12814;SDS011;6472;52.328;13.070;2023-08-30T02:37:02;5.13;;;4.63;;
12814;SDS011;6472;52.328;13.070;2023-08-30T02:39:30;4.93;;;4.47;;
12814;SDS011;6472;52.328;13.070;2023-08-30T02:41:58;4.77;;;4.37;;
12814;SDS011;6472;52.328;13.070;2023-08-30T02:44:26;5.10;;;4.63;;
12814;SDS011;6472;52.328;13.070;2023-08-30T02:46:54;5.57;;;4.23;;
12814;SDS011;6472;52.328;13.070;2023-08-30T02:49:23;5.10;;;4.53;;
12814;SDS011;6472;52.328;13.070;2023-08-30T02:51:51;4.97;;;4.57;;
12814;SDS011;6472;52.328;13.070;2023-08-30T02:54:19;4.93;;;4.43;;
12814;SDS011;6472;52.328;13.070;2023-08-30T02:56:48;4.67;;;4.17;;
12814;SDS011;6472;52.328;13.070;2023-08-30T02:59:17;4.83;;;4.43;;
12814;SDS011;6472;52.328;13.070;2023-08-30T03:01:45;5.17;;;4.67;;
12814;SDS011;6472;52.328;13.070;2023-08-30T03:04:13;5.07;;;4.33;;
12814;SDS011;6472;52.328;13.070;2023-08-30T03:06:43;4.90;;;4.43;;
12814;SDS011;6472;52.328;13.070;2023-08-30T03:09:11;5.40;;;4.80;;
12814;SDS011;6472;52.328;13.070;2023-08-30T03:11:39;4.27;;;3.73;;
12814;SDS011;6472;52.328;13.070;2023-08-30T03:14:07;4.43;;;4.03;;
12814;SDS011;6472;52.328;13.070;2023-08-30T03:16:35;4.37;;;3.97;;
12814;SDS011;6472;52.328;13.070;2023-08-30T03:19:03;4.70;;;4.17;;
12814;SDS011;6472;52.328;13.070;2023-08-30T03:21:31;4.27;;;3.87;;
12814;SDS011;6472;52.328;13.070;2023-08-30T03:24:00;4.40;;;4.00;;
12814;SDS011;6472;52.328;13.070;2023-08-30T03:26:28;5.60;;;4.50;;
12814;SDS011;6472;52.328;13.070;2023-08-30T03:28:56;5.33;;;4.40;;
12814;SDS011;6472;52.328;13.070;2023-08-30T03:31:24;3.77;;;3.47;;
12814;SDS011;6472;52.328;13.070;2023-08-30T03:33:52;5.20;;;4.63;;
12814;SDS011;6472;52.328;13.070;2023-08-30T03:36:20;6.23;;;5.00;;
12814;SDS011;6472;52.328;13.070;2023-08-30T03:38:48;5.30;;;4.80;;
12814;SDS011;6472;52.328;13.070;2023-08-30T03:41:18;6.67;;;4.37;;
12814;SDS011;6472;52.328;13.070;2023-08-30T03:43:45;6.37;;;5.50;;
12814;SDS011;6472;52.328;13.070;2023-08-30T03:46:13;6.00;;;5.40;;
12814;SDS011;6472;52.328;13.070;2023-08-30T03:48:41;5.43;;;4.40;;
12814;SDS011;6472;52.328;13.070;2023-08-30T03:51:09;5.50;;;4.97;;
12814;SDS011;6472;52.328;13.070;2023-08-30T03:53:37;4.70;;;4.30;;
12814;SDS011;6472;52.328;13.070;2023-08-30T03:56:05;5.77;;;5.00;;
12814;SDS011;6472;52.328;13.070;2023-08-30T03:58:35;6.00;;;5.40;;
12814;SDS011;6472;52.328;13.070;2023-08-30T04:01:04;5.80;;;5.20;;
12814;SDS011;6472;52.328;13.070;2023-08-30T04:03:33;6.53;;;5.50;;
12814;SDS011;6472;52.328;13.070;2023-08-30T04:06:01;5.63;;;5.13;;
12814;SDS011;6472;52.328;13.070;2023-08-30T04:08:29;7.13;;;5.63;;
12814;SDS011;6472;52.328;13.070;2023-08-30T04:10:57;6.33;;;5.73;;
12814;SDS011;6472;52.328;13.070;2023-08-30T04:13:25;8.83;;;5.87;;
12814;SDS011;6472;52.328;13.070;2023-08-30T04:15:55;6.43;;;5.13;;
12814;SDS011;6472;52.328;13.070;2023-08-30T04:18:25;7.67;;;5.97;;
12814;SDS011;6472;52.328;13.070;2023-08-30T04:20:53;8.70;;;5.83;;
12814;SDS011;6472;52.328;13.070;2023-08-30T04:23:21;5.07;;;4.63;;
12814;SDS011;6472;52.328;13.070;2023-08-30T04:25:48;8.27;;;6.37;;
12814;SDS011;6472;52.328;13.070;2023-08-30T04:28:17;10.30;;;6.33;;
12814;SDS011;6472;52.328;13.070;2023-08-30T04:30:44;6.67;;;5.40;;
12814;SDS011;6472;52.328;13.070;2023-08-30T04:33:14;5.70;;;5.20;;
12814;SDS011;6472;52.328;13.070;2023-08-30T04:35:42;7.60;;;5.57;;
12814;SDS011;6472;52.328;13.070;2023-08-30T04:38:10;6.60;;;5.87;;
12814;SDS011;6472;52.328;13.070;2023-08-30T04:40:38;6.93;;;6.30;;
12814;SDS011;6472;52.328;13.070;2023-08-30T04:43:06;6.77;;;6.07;;
12814;SDS011;6472;52.328;13.070;2023-08-30T04:45:34;7.20;;;6.50;;
12814;SDS011;6472;52.328;13.070;2023-08-30T04:48:02;8.13;;;5.83;;
12814;SDS011;6472;52.328;13.070;2023-08-30T04:50:33;6.43;;;5.57;;
12814;SDS011;6472;52.328;13.070;2023-08-30T04:53:01;7.50;;;5.97;;
12814;SDS011;6472;52.328;13.070;2023-08-30T04:55:29;6.10;;;5.50;;
12814;SDS011;6472;52.328;13.070;2023-08-30T04:57:57;6.03;;;5.43;;
12814;SDS011;6472;52.328;13.070;2023-08-30T05:00:25;7.47;;;6.00;;
12814;SDS011;6472;52.328;13.070;2023-08-30T05:02:53;7.10;;;6.10;;
12814;SDS011;6472;52.328;13.070;2023-08-30T05:05:21;7.57;;;6.20;;
12814;SDS011;6472;52.328;13.070;2023-08-30T05:07:50;9.03;;;5.23;;
12814;SDS011;6472;52.328;13.070;2023-08-30T05:10:18;5.87;;;5.30;;
12814;SDS011;6472;52.328;13.070;2023-08-30T05:12:46;5.90;;;5.30;;
12814;SDS011;6472;52.328;13.070;2023-08-30T05:15:18;6.30;;;5.33;;
12814;SDS011;6472;52.328;13.070;2023-08-30T05:17:46;6.00;;;5.40;;
12814;SDS011;6472;52.328;13.070;2023-08-30T05:20:14;7.20;;;5.97;;
12814;SDS011;6472;52.328;13.070;2023-08-30T05:22:43;6.53;;;5.80;;
12814;SDS011;6472;52.328;13.070;2023-08-30T05:25:12;6.80;;;6.10;;
12814;SDS011;6472;52.328;13.070;2023-08-30T05:27:40;6.13;;;5.47;;
12814;SDS011;6472;52.328;13.070;2023-08-30T05:30:08;6.50;;;5.90;;
12814;SDS011;6472;52.328;13.070;2023-08-30T05:32:37;7.67;;;6.47;;
12814;SDS011;6472;52.328;13.070;2023-08-30T05:35:05;9.50;;;6.40;;
12814;SDS011;6472;52.328;13.070;2023-08-30T05:37:34;7.20;;;6.50;;
12814;SDS011;6472;52.328;13.070;2023-08-30T05:40:02;7.17;;;6.47;;
12814;SDS011;6472;52.328;13.070;2023-08-30T05:42:32;7.23;;;6.57;;
12814;SDS011;6472;52.328;13.070;2023-08-30T05:45:00;7.87;;;7.17;;
12814;SDS011;6472;52.328;13.070;2023-08-30T05:47:28;6.70;;;6.10;;
12814;SDS011;6472;52.328;13.070;2023-08-30T05:49:56;9.40;;;7.70;;
12814;SDS011;6472;52.328;13.070;2023-08-30T05:52:25;8.97;;;6.90;;
12814;SDS011;6472;52.328;13.070;2023-08-30T05:54:53;10.93;;;7.57;;
12814;SDS011;6472;52.328;13.070;2023-08-30T05:57:21;7.73;;;7.03;;
12814;SDS011;6472;52.328;13.070;2023-08-30T05:59:52;9.50;;;6.77;;
12814;SDS011;6472;52.328;13.070;2023-08-30T06:02:20;8.03;;;6.83;;
12814;SDS011;6472;52.328;13.070;2023-08-30T06:04:48;7.80;;;7.03;;
12814;SDS011;6472;52.328;13.070;2023-08-30T06:07:16;7.33;;;6.63;;
12814;SDS011;6472;52.328;13.070;2023-08-30T06:09:44;7.80;;;7.00;;
12814;SDS011;6472;52.328;13.070;2023-08-30T06:12:12;7.27;;;6.57;;
12814;SDS011;6472;52.328;13.070;2023-08-30T06:14:40;7.90;;;6.63;;
12814;SDS011;6472;52.328;13.070;2023-08-30T06:17:10;8.73;;;7.37;;
12814;SDS011;6472;52.328;13.070;2023-08-30T06:19:38;9.20;;;7.33;;
12814;SDS011;6472;52.328;13.070;2023-08-30T06:22:06;7.83;;;7.13;;
12814;SDS011;6472;52.328;13.070;2023-08-30T06:24:34;7.53;;;6.93;;
12814;SDS011;6472;52.328;13.070;2023-08-30T06:27:03;8.60;;;7.67;;
12814;SDS011;6472;52.328;13.070;2023-08-30T06:29:31;8.77;;;7.80;;
12814;SDS011;6472;52.328;13.070;2023-08-30T06:31:59;7.90;;;7.20;;
12814;SDS011;6472;52.328;13.070;2023-08-30T06:34:28;7.23;;;6.53;;
12814;SDS011;6472;52.328;13.070;2023-08-30T06:36:56;8.17;;;7.37;;
12814;SDS011;6472;52.328;13.070;2023-08-30T06:39:24;8.53;;;7.67;;
12814;SDS011;6472;52.328;13.070;2023-08-30T06:41:52;8.07;;;7.30;;
12814;SDS011;6472;52.328;13.070;2023-08-30T06:44:20;8.57;;;6.77;;
12814;SDS011;6472;52.328;13.070;2023-08-30T06:46:49;8.27;;;7.57;;
12814;SDS011;6472;52.328;13.070;2023-08-30T06:49:16;7.03;;;6.40;;
12814;SDS011;6472;52.328;13.070;2023-08-30T06:51:46;8.03;;;7.03;;
12814;SDS011;6472;52.328;13.070;2023-08-30T06:54:14;7.13;;;6.43;;
12814;SDS011;6472;52.328;13.070;2023-08-30T06:56:45;7.50;;;6.80;;
12814;SDS011;6472;52.328;13.070;2023-08-30T06:59:25;7.27;;;6.57;;
12814;SDS011;6472;52.328;13.070;2023-08-30T07:01:53;8.97;;;8.13;;
12814;SDS011;6472;52.328;13.070;2023-08-30T07:04:21;7.78;;;6.95;;
12814;SDS011;6472;52.328;13.070;2023-08-30T07:06:50;7.28;;;6.28;;
12814;SDS011;6472;52.328;13.070;2023-08-30T07:09:19;8.55;;;7.72;;
12814;SDS011;6472;52.328;13.070;2023-08-30T07:11:48;7.32;;;6.57;;
12814;SDS011;6472;52.328;13.070;2023-08-30T07:14:16;6.13;;;5.53;;
12814;SDS011;6472;52.328;13.070;2023-08-30T07:16:44;7.40;;;6.70;;
12814;SDS011;6472;52.328;13.070;2023-08-30T07:19:12;7.03;;;6.40;;
12814;SDS011;6472;52.328;13.070;2023-08-30T07:21:40;7.13;;;6.15;;
12814;SDS011;6472;52.328;13.070;2023-08-30T07:24:10;6.28;;;5.68;;
12814;SDS011;6472;52.328;13.070;2023-08-30T07:26:39;8.40;;;6.45;;
12814;SDS011;6472;52.328;13.070;2023-08-30T07:29:08;6.63;;;5.95;;
12814;SDS011;6472;52.328;13.070;2023-08-30T07:31:37;6.72;;;5.97;;
12814;SDS011;6472;52.328;13.070;2023-08-30T07:34:04;7.65;;;6.10;;
12814;SDS011;6472;52.328;13.070;2023-08-30T07:36:36;6.57;;;6.07;;
12814;SDS011;6472;52.328;13.070;2023-08-30T07:39:14;5.88;;;5.38;;
12814;SDS011;6472;52.328;13.070;2023-08-30T07:41:42;6.32;;;5.68;;
12814;SDS011;6472;52.328;13.070;2023-08-30T07:44:10;7.50;;;6.00;;
12814;SDS011;6472;52.328;13.070;2023-08-30T07:46:38;6.28;;;5.25;;
12814;SDS011;6472;52.328;13.070;2023-08-30T07:49:06;6.22;;;5.63;;
12814;SDS011;6472;52.328;13.070;2023-08-30T07:51:34;6.72;;;5.95;;
12814;SDS011;6472;52.328;13.070;2023-08-30T07:54:02;7.40;;;4.88;;
12814;SDS011;6472;52.328;13.070;2023-08-30T07:56:32;6.70;;;5.47;;
12814;SDS011;6472;52.328;13.070;2023-08-30T07:59:00;6.25;;;4.88;;
12814;SDS011;6472;52.328;13.070;2023-08-30T08:01:28;5.18;;;4.68;;
12814;SDS011;6472;52.328;13.070;2023-08-30T08:03:56;7.57;;;4.47;;
12814;SDS011;6472;52.328;13.070;2023-08-30T08:06:33;6.90;;;4.88;;
12814;SDS011;6472;52.328;13.070;2023-08-30T08:09:03;5.35;;;4.95;;
12814;SDS011;6472;52.328;13.070;2023-08-30T08:11:33;5.70;;;5.20;;
12814;SDS011;6472;52.328;13.070;2023-08-30T08:14:01;5.85;;;5.32;;
12814;SDS011;6472;52.328;13.070;2023-08-30T08:16:30;6.93;;;6.30;;
12814;SDS011;6472;52.328;13.070;2023-08-30T08:18:58;5.78;;;5.28;;
12814;SDS011;6472;52.328;13.070;2023-08-30T08:21:28;5.63;;;5.03;;
12814;SDS011;6472;52.328;13.070;2023-08-30T08:23:56;5.47;;;5.07;;
12814;SDS011;6472;52.328;13.070;2023-08-30T08:26:24;5.43;;;4.95;;
12814;SDS011;6472;52.328;13.070;2023-08-30T08:28:54;5.40;;;4.90;;
12814;SDS011;6472;52.328;13.070;2023-08-30T08:31:22;5.93;;;5.03;;
12814;SDS011;6472;52.328;13.070;2023-08-30T08:33:51;7.18;;;5.03;;
12814;SDS011;6472;52.328;13.070;2023-08-30T08:36:33;5.32;;;4.57;;
12814;SDS011;6472;52.328;13.070;2023-08-30T08:39:01;5.18;;;4.70;;
12814;SDS011;6472;52.328;13.070;2023-08-30T08:41:33;5.13;;;4.72;;
12814;SDS011;6472;52.328;13.070;2023-08-30T08:44:05;6.18;;;5.15;;
12814;SDS011;6472;52.328;13.070;2023-08-30T08:46:35;5.10;;;4.60;;
12814;SDS011;6472;52.328;13.070;2023-08-30T08:49:08;4.95;;;4.45;;
12814;SDS011;6472;52.328;13.070;2023-08-30T08:51:40;5.85;;;4.78;;
12814;SDS011;6472;52.328;13.070;2023-08-30T08:54:09;6.05;;;5.30;;
12814;SDS011;6472;52.328;13.070;2023-08-30T08:56:38;4.78;;;4.32;;
12814;SDS011;6472;52.328;13.070;2023-08-30T08:59:08;6.72;;;4.43;;
12814;SDS011;6472;52.328;13.070;2023-08-30T09:01:38;5.68;;;5.18;;
12814;SDS011;6472;52.328;13.070;2023-08-30T09:04:07;5.22;;;4.75;;
12814;SDS011;6472;52.328;13.070;2023-08-30T09:06:37;5.85;;;5.15;;
12814;SDS011;6472;52.328;13.070;2023-08-30T09:09:08;5.35;;;4.95;;
12814;SDS011;6472;52.328;13.070;2023-08-30T09:11:36;4.47;;;4.18;;
12814;SDS011;6472;52.328;13.070;2023-08-30T09:14:17;6.53;;;4.75;;
12814;SDS011;6472;52.328;13.070;2023-08-30T09:16:53;5.28;;;4.78;;
12814;SDS011;6472;52.328;13.070;2023-08-30T09:19:22;6.60;;;5.72;;
12814;SDS011;6472;52.328;13.070;2023-08-30T09:21:53;6.25;;;5.10;;
12814;SDS011;6472;52.328;13.070;2023-08-30T09:24:21;5.32;;;4.80;;
12814;SDS011;6472;52.328;13.070;2023-08-30T09:26:50;5.60;;;5.10;;
12814;SDS011;6472;52.328;13.070;2023-08-30T09:29:20;6.65;;;6.03;;
12814;SDS011;6472;52.328;13.070;2023-08-30T09:31:51;6.70;;;6.10;;
12814;SDS011;6472;52.328;13.070;2023-08-30T09:34:22;5.97;;;5.47;;
12814;SDS011;6472;52.328;13.070;2023-08-30T09:37:19;7.55;;;6.95;;
12814;SDS011;6472;52.328;13.070;2023-08-30T09:39:48;7.78;;;7.18;;
12814;SDS011;6472;52.328;13.070;2023-08-30T09:42:17;8.10;;;7.40;;
12814;SDS011;6472;52.328;13.070;2023-08-30T09:44:46;8.00;;;7.38;;
12814;SDS011;6472;52.328;13.070;2023-08-30T09:47:15;7.40;;;6.55;;
12814;SDS011;6472;52.328;13.070;2023-08-30T09:49:44;6.80;;;6.20;;
12814;SDS011;6472;52.328;13.070;2023-08-30T09:52:14;7.38;;;6.57;;
12814;SDS011;6472;52.328;13.070;2023-08-30T09:54:43;6.70;;;6.10;;
12814;SDS011;6472;52.328;13.070;2023-08-30T09:57:13;7.07;;;6.60;;
12814;SDS011;6472;52.328;13.070;2023-08-30T09:59:43;7.05;;;6.45;;
12814;SDS011;6472;52.328;13.070;2023-08-30T10:02:13;6.18;;;5.68;;
12814;SDS011;6472;52.328;13.070;2023-08-30T10:04:43;5.35;;;4.93;;
12814;SDS011;6472;52.328;13.070;2023-08-30T10:07:12;5.30;;;4.63;;
12814;SDS011;6472;52.328;13.070;2023-08-30T10:09:42;4.68;;;4.25;;
12814;SDS011;6472;52.328;13.070;2023-08-30T10:12:31;4.30;;;3.70;;
12814;SDS011;6472;52.328;13.070;2023-08-30T10:14:59;3.85;;;3.50;;
12814;SDS011;6472;52.328;13.070;2023-08-30T10:17:31;3.83;;;3.50;;
12814;SDS011;6472;52.328;13.070;2023-08-30T10:20:01;4.68;;;4.28;;
12814;SDS011;6472;52.328;13.070;2023-08-30T10:22:32;5.32;;;4.88;;
12814;SDS011;6472;52.328;13.070;2023-08-30T10:25:05;4.45;;;4.05;;
12814;SDS011;6472;52.328;13.070;2023-08-30T10:27:38;4.22;;;3.92;;
12814;SDS011;6472;52.328;13.070;2023-08-30T10:30:09;5.07;;;4.68;;
12814;SDS011;6472;52.328;13.070;2023-08-30T10:32:41;4.72;;;4.32;;
12814;SDS011;6472;52.328;13.070;2023-08-30T10:35:10;4.95;;;4.65;;
12814;SDS011;6472;52.328;13.070;2023-08-30T10:37:39;4.63;;;4.22;;
12814;SDS011;6472;52.328;13.070;2023-08-30T10:40:08;5.70;;;5.30;;
12814;SDS011;6472;52.328;13.070;2023-08-30T10:42:37;4.70;;;4.30;;
12814;SDS011;6472;52.328;13.070;2023-08-30T10:45:05;5.05;;;4.75;;
12814;SDS011;6472;52.328;13.070;2023-08-30T10:47:41;5.28;;;4.88;;
12814;SDS011;6472;52.328;13.070;2023-08-30T10:50:10;5.00;;;4.60;;
12814;SDS011;6472;52.328;13.070;2023-08-30T10:52:39;5.18;;;4.65;;
12814;SDS011;6472;52.328;13.070;2023-08-30T10:55:08;4.22;;;3.90;;
12814;SDS011;6472;52.328;13.070;2023-08-30T10:57:37;5.75;;;4.15;;
12814;SDS011;6472;52.328;13.070;2023-08-30T11:00:09;4.82;;;3.90;;
12814;SDS011;6472;52.328;13.070;2023-08-30T11:02:44;3.70;;;3.40;;
12814;SDS011;6472;52.328;13.070;2023-08-30T11:05:14;3.95;;;3.55;;
12814;SDS011;6472;52.328;13.070;2023-08-30T11:07:43;3.70;;;3.50;;
12814;SDS011;6472;52.328;13.070;2023-08-30T11:10:12;3.45;;;3.15;;
12814;SDS011;6472;52.328;13.070;2023-08-30T11:12:41;3.40;;;3.20;;
12814;SDS011;6472;52.328;13.070;2023-08-30T11:15:11;3.47;;;3.17;;
12814;SDS011;6472;52.328;13.070;2023-08-30T11:17:41;4.05;;;3.33;;
12814;SDS011;6472;52.328;13.070;2023-08-30T11:20:11;3.45;;;2.83;;
12814;SDS011;6472;52.328;13.070;2023-08-30T11:22:41;2.75;;;2.50;;
12814;SDS011;6472;52.328;13.070;2023-08-30T11:25:10;3.35;;;3.05;;
12814;SDS011;6472;52.328;13.070;2023-08-30T11:27:39;2.55;;;2.15;;
12814;SDS011;6472;52.328;13.070;2023-08-30T11:30:08;3.28;;;2.97;;
12814;SDS011;6472;52.328;13.070;2023-08-30T11:32:38;3.50;;;2.97;;
12814;SDS011;6472;52.328;13.070;2023-08-30T11:35:11;2.90;;;2.70;;
12814;SDS011;6472;52.328;13.070;2023-08-30T11:37:39;2.97;;;2.78;;
12814;SDS011;6472;52.328;13.070;2023-08-30T11:40:09;3.65;;;3.28;;
12814;SDS011;6472;52.328;13.070;2023-08-30T11:42:39;3.15;;;2.95;;
12814;SDS011;6472;52.328;13.070;2023-08-30T11:45:07;2.95;;;2.75;;
12814;SDS011;6472;52.328;13.070;2023-08-30T11:47:36;3.08;;;2.60;;
12814;SDS011;6472;52.328;13.070;2023-08-30T11:50:07;2.70;;;2.50;;
12814;SDS011;6472;52.328;13.070;2023-08-30T11:52:38;2.97;;;2.78;;
12814;SDS011;6472;52.328;13.070;2023-08-30T11:55:06;3.85;;;2.90;;
12814;SDS011;6472;52.328;13.070;2023-08-30T11:57:35;2.35;;;2.15;;
12814;SDS011;6472;52.328;13.070;2023-08-30T12:00:07;2.53;;;2.33;;
12814;SDS011;6472;52.328;13.070;2023-08-30T12:02:36;2.95;;;2.75;;
12814;SDS011;6472;52.328;13.070;2023-08-30T12:05:05;2.17;;;2.08;;
12814;SDS011;6472;52.328;13.070;2023-08-30T12:07:33;3.33;;;1.90;;
12814;SDS011;6472;52.328;13.070;2023-08-30T12:10:06;2.60;;;2.40;;
12814;SDS011;6472;52.328;13.070;2023-08-30T12:12:35;2.53;;;2.10;;
12814;SDS011;6472;52.328;13.070;2023-08-30T12:15:07;2.47;;;2.17;;
12814;SDS011;6472;52.328;13.070;2023-08-30T12:17:36;1.77;;;1.67;;
12814;SDS011;6472;52.328;13.070;2023-08-30T12:20:04;4.45;;;2.25;;
12814;SDS011;6472;52.328;13.070;2023-08-30T12:22:37;2.28;;;1.92;;
12814;SDS011;6472;52.328;13.070;2023-08-30T12:25:16;2.05;;;1.85;;
12814;SDS011;6472;52.328;13.070;2023-08-30T12:27:45;1.80;;;1.70;;
12814;SDS011;6472;52.328;13.070;2023-08-30T12:30:13;2.05;;;1.90;;
12814;SDS011;6472;52.328;13.070;2023-08-30T12:32:43;2.15;;;1.77;;
12814;SDS011;6472;52.328;13.070;2023-08-30T12:35:11;2.47;;;1.90;;
12814;SDS011;6472;52.328;13.070;2023-08-30T12:37:39;1.98;;;1.75;;
12814;SDS011;6472;52.328;13.070;2023-08-30T12:40:08;1.55;;;1.50;;
12814;SDS011;6472;52.328;13.070;2023-08-30T12:42:37;3.80;;;2.17;;
12814;SDS011;6472;52.328;13.070;2023-08-30T12:45:06;1.60;;;1.50;;
12814;SDS011;6472;52.328;13.070;2023-08-30T12:47:35;2.08;;;1.98;;
12814;SDS011;6472;52.328;13.070;2023-08-30T12:50:03;3.78;;;2.33;;
12814;SDS011;6472;52.328;13.070;2023-08-30T12:52:31;2.67;;;2.47;;
12814;SDS011;6472;52.328;13.070;2023-08-30T12:54:59;1.80;;;1.70;;
12814;SDS011;6472;52.328;13.070;2023-08-30T12:57:27;2.80;;;2.33;;
12814;SDS011;6472;52.328;13.070;2023-08-30T12:59:56;2.00;;;1.90;;
12814;SDS011;6472;52.328;13.070;2023-08-30T13:02:24;2.75;;;2.20;;
12814;SDS011;6472;52.328;13.070;2023-08-30T13:04:52;2.95;;;2.67;;
12814;SDS011;6472;52.328;13.070;2023-08-30T13:07:20;2.08;;;1.98;;
12814;SDS011;6472;52.328;13.070;2023-08-30T13:09:48;2.53;;;2.38;;
12814;SDS011;6472;52.328;13.070;2023-08-30T13:12:16;2.38;;;1.83;;
12814;SDS011;6472;52.328;13.070;2023-08-30T13:14:44;1.92;;;1.80;;
12814;SDS011;6472;52.328;13.070;2023-08-30T13:17:14;2.25;;;2.05;;
12814;SDS011;6472;52.328;13.070;2023-08-30T13:19:43;1.70;;;1.60;;
12814;SDS011;6472;52.328;13.070;2023-08-30T13:22:11;2.00;;;1.90;;
12814;SDS011;6472;52.328;13.070;2023-08-30T13:24:39;2.22;;;1.90;;
12814;SDS011;6472;52.328;13.070;2023-08-30T13:27:07;3.42;;;1.92;;
12814;SDS011;6472;52.328;13.070;2023-08-30T13:29:35;2.30;;;2.00;;
12814;SDS011;6472;52.328;13.070;2023-08-30T13:32:04;2.00;;;1.80;;
12814;SDS011;6472;52.328;13.070;2023-08-30T13:34:33;1.98;;;1.88;;
12814;SDS011;6472;52.328;13.070;2023-08-30T13:37:02;2.00;;;1.90;;
12814;SDS011;6472;52.328;13.070;2023-08-30T13:39:30;4.15;;;2.22;;
12814;SDS011;6472;52.328;13.070;2023-08-30T13:41:58;2.00;;;1.90;;
12814;SDS011;6472;52.328;13.070;2023-08-30T13:44:26;2.00;;;1.90;;
12814;SDS011;6472;52.328;13.070;2023-08-30T13:46:54;2.15;;;2.05;;
12814;SDS011;6472;52.328;13.070;2023-08-30T13:49:22;2.72;;;1.77;;
12814;SDS011;6472;52.328;13.070;2023-08-30T13:51:52;2.25;;;1.80;;
12814;SDS011;6472;52.328;13.070;2023-08-30T13:54:20;1.80;;;1.70;;
12814;SDS011;6472;52.328;13.070;2023-08-30T13:56:48;1.80;;;1.70;;
12814;SDS011;6472;52.328;13.070;2023-08-30T13:59:16;2.25;;;2.05;;
12814;SDS011;6472;52.328;13.070;2023-08-30T14:01:46;1.95;;;1.85;;
12814;SDS011;6472;52.328;13.070;2023-08-30T14:04:14;3.97;;;1.85;;
12814;SDS011;6472;52.328;13.070;2023-08-30T14:06:42;1.98;;;1.88;;
12814;SDS011;6472;52.328;13.070;2023-08-30T14:09:11;2.38;;;2.17;;
12814;SDS011;6472;52.328;13.070;2023-08-30T14:11:40;1.58;;;1.50;;
12814;SDS011;6472;52.328;13.070;2023-08-30T14:14:09;4.57;;;2.05;;
12814;SDS011;6472;52.328;13.070;2023-08-30T14:16:37;2.53;;;1.80;;
12814;SDS011;6472;52.328;13.070;2023-08-30T14:19:05;3.25;;;2.10;;
12814;SDS011;6472;52.328;13.070;2023-08-30T14:21:34;1.98;;;1.60;;
12814;SDS011;6472;52.328;13.070;2023-08-30T14:24:02;2.20;;;2.10;;
12814;SDS011;6472;52.328;13.070;2023-08-30T14:26:32;1.73;;;1.63;;
12814;SDS011;6472;52.328;13.070;2023-08-30T14:29:00;1.73;;;1.63;;
12814;SDS011;6472;52.328;13.070;2023-08-30T14:31:27;2.45;;;1.80;;
12814;SDS011;6472;52.328;13.070;2023-08-30T14:33:56;1.80;;;1.70;;
12814;SDS011;6472;52.328;13.070;2023-08-30T14:36:24;1.60;;;1.50;;
12814;SDS011;6472;52.328;13.070;2023-08-30T14:38:52;1.70;;;1.60;;
12814;SDS011;6472;52.328;13.070;2023-08-30T14:41:20;1.80;;;1.70;;
12814;SDS011;6472;52.328;13.070;2023-08-30T14:43:50;1.50;;;1.40;;
12814;SDS011;6472;52.328;13.070;2023-08-30T14:46:18;1.55;;;1.48;;
12814;SDS011;6472;52.328;13.070;2023-08-30T14:48:49;4.18;;;2.00;;
12814;SDS011;6472;52.328;13.070;2023-08-30T14:51:18;3.08;;;1.65;;
12814;SDS011;6472;52.328;13.070;2023-08-30T14:53:46;1.80;;;1.70;;
12814;SDS011;6472;52.328;13.070;2023-08-30T14:56:14;1.88;;;1.63;;
12814;SDS011;6472;52.328;13.070;2023-08-30T14:58:43;2.83;;;1.70;;
12814;SDS011;6472;52.328;13.070;2023-08-30T15:01:16;1.65;;;1.55;;